[ ตารางข้อมูล ] [ Min-Max ] [ วันนี้4 ] [ วันนี้2 ] [ เทียบ3วัน A ] [ เทียบ4วัน B ]   

วันนี้2   [ ◀ ช่วงเก่ากว่า ] [ ช่วงที่ 244 ] [ ช่วงใหม่กว่า ▶ ] [ ล่าสุด ]    [ 3 ชั่วโมง ] [ 6 ชั่วโมง ] [ 12 ชั่วโมง ] [ 24 ชั่วโมง ]   วันนี้2

อุณภูมิตู้ Knockdown4529  ราย 6 ชั่วโมง  ที่วัดได้ ในช่วงวันเวลา 06/03/2026 (16:27) ถึง 06/03/2026 (22:27) 
ความชื้นในตู้ Knockdown4529  ราย 6 ชั่วโมง  ที่วัดได้ ในช่วงวันเวลา 06/03/2026 (16:27) ถึง 06/03/2026 (22:27) 

 
DS18B20SHTC3 
IDDate d/m/Y & Timedata1
สูง
data2
ต่ำ
data3
นอก
temp
pcb
hum
pcb
Time
 62  06/03/2026 22:25:13  28.1  28.1  27.7  28.0  71.6  22:25 
 61  06/03/2026 22:20:31  28.1  28.2  27.5  28.0  71.6  22:20 
 60  06/03/2026 22:15:49  28.1  28.2  27.4  28.1  71.7  22:15 
 59  06/03/2026 22:11:07  28.2  28.2  27.2  28.1  71.6  22:11 
 58  06/03/2026 22:06:26  28.2  28.2  27.1  28.1  71.7  22:06 
 57  06/03/2026 22:01:44  28.2  28.3  27.0  28.1  71.7  22:01 
 56  06/03/2026 21:57:02  28.3  28.4  26.9  28.1  71.7  21:57 
 55  06/03/2026 21:52:20  28.3  28.4  26.7  28.2  71.7  21:52 
 54  06/03/2026 21:47:39  28.4  28.4  26.5  28.2  71.6  21:47 
 53  06/03/2026 21:42:57  28.4  28.5  26.8  28.4  71.6  21:42 
 52  06/03/2026 21:38:16  28.4  28.5  26.9  28.4  71.5  21:38 
 51  06/03/2026 21:33:34  28.5  28.6  26.9  28.6  71.6  21:33 
 50  06/03/2026 21:28:53  28.6  28.6  26.7  28.4  71.5  21:28 
 49  06/03/2026 21:24:11  28.6  28.7  26.5  28.4  71.4  21:24 
 48  06/03/2026 21:19:29  28.7  28.8  26.4  28.5  71.4  21:19 
 47  06/03/2026 21:14:48  28.8  28.8  26.5  28.7  71.5  21:14 
 46  06/03/2026 21:10:06  28.8  28.9  26.4  28.7  71.4  21:10 
 45  06/03/2026 21:05:24  28.9  28.9  26.5  28.9  71.4  21:05 
 44  06/03/2026 21:00:43  28.9  29.0  26.5  28.9  71.2  21:00 
 43  06/03/2026 20:56:01  29.1  29.1  26.9  29.0  71.2  20:56 
 42  06/03/2026 20:51:19  29.1  29.2  26.7  28.9  71.1  20:51 
 41  06/03/2026 20:46:39  29.2  29.2  26.7  29.2  71.1  20:46 
 40  06/03/2026 20:41:58  29.2  29.3  26.7  29.2  71.0  20:41 
 39  06/03/2026 20:37:15  29.3  29.4  26.5  29.2  71.0  20:37 

Data every 5 minute.


ใช้เวลาประมวลผล 0.00274 วินาที